sensor_id;sensor_type;location;lat;lon;timestamp;P1;durP1;ratioP1;P2;durP2;ratioP2
8397;SDS011;4236;54.504;9.588;2022-12-07T00:01:04;33.63;;;30.93;;
8397;SDS011;4236;54.504;9.588;2022-12-07T00:03:32;35.27;;;32.60;;
8397;SDS011;4236;54.504;9.588;2022-12-07T00:06:01;34.10;;;31.40;;
8397;SDS011;4236;54.504;9.588;2022-12-07T00:08:31;36.47;;;33.47;;
8397;SDS011;4236;54.504;9.588;2022-12-07T00:11:00;33.80;;;31.10;;
8397;SDS011;4236;54.504;9.588;2022-12-07T00:13:29;34.60;;;32.00;;
8397;SDS011;4236;54.504;9.588;2022-12-07T00:15:59;34.63;;;32.00;;
8397;SDS011;4236;54.504;9.588;2022-12-07T00:18:27;35.87;;;32.97;;
8397;SDS011;4236;54.504;9.588;2022-12-07T00:20:58;34.33;;;31.83;;
8397;SDS011;4236;54.504;9.588;2022-12-07T00:23:28;34.43;;;31.83;;
8397;SDS011;4236;54.504;9.588;2022-12-07T00:26:02;32.23;;;29.93;;
8397;SDS011;4236;54.504;9.588;2022-12-07T00:28:30;32.37;;;30.13;;
8397;SDS011;4236;54.504;9.588;2022-12-07T00:31:00;33.67;;;31.17;;
8397;SDS011;4236;54.504;9.588;2022-12-07T00:33:28;33.70;;;31.47;;
8397;SDS011;4236;54.504;9.588;2022-12-07T00:35:56;35.10;;;32.57;;
8397;SDS011;4236;54.504;9.588;2022-12-07T00:38:24;33.80;;;31.10;;
8397;SDS011;4236;54.504;9.588;2022-12-07T00:40:57;32.67;;;30.27;;
8397;SDS011;4236;54.504;9.588;2022-12-07T00:43:26;33.83;;;31.43;;
8397;SDS011;4236;54.504;9.588;2022-12-07T00:45:54;34.97;;;32.47;;
8397;SDS011;4236;54.504;9.588;2022-12-07T00:48:23;29.87;;;27.70;;
8397;SDS011;4236;54.504;9.588;2022-12-07T00:50:51;30.47;;;28.47;;
8397;SDS011;4236;54.504;9.588;2022-12-07T00:53:18;30.67;;;28.33;;
8397;SDS011;4236;54.504;9.588;2022-12-07T00:55:46;28.87;;;27.17;;
8397;SDS011;4236;54.504;9.588;2022-12-07T00:58:16;30.77;;;28.73;;
8397;SDS011;4236;54.504;9.588;2022-12-07T01:00:43;30.23;;;28.33;;
8397;SDS011;4236;54.504;9.588;2022-12-07T01:03:12;31.30;;;29.10;;
8397;SDS011;4236;54.504;9.588;2022-12-07T01:05:48;31.57;;;29.47;;
8397;SDS011;4236;54.504;9.588;2022-12-07T01:08:17;31.50;;;29.10;;
8397;SDS011;4236;54.504;9.588;2022-12-07T01:10:44;31.70;;;29.60;;
8397;SDS011;4236;54.504;9.588;2022-12-07T01:13:12;32.87;;;30.60;;
8397;SDS011;4236;54.504;9.588;2022-12-07T01:15:42;32.60;;;30.50;;
8397;SDS011;4236;54.504;9.588;2022-12-07T01:18:10;32.47;;;30.27;;
8397;SDS011;4236;54.504;9.588;2022-12-07T01:20:38;33.27;;;30.90;;
8397;SDS011;4236;54.504;9.588;2022-12-07T01:23:06;34.60;;;32.13;;
8397;SDS011;4236;54.504;9.588;2022-12-07T01:25:34;34.37;;;31.90;;
8397;SDS011;4236;54.504;9.588;2022-12-07T01:28:01;35.63;;;33.00;;
8397;SDS011;4236;54.504;9.588;2022-12-07T01:30:29;37.33;;;33.87;;
8397;SDS011;4236;54.504;9.588;2022-12-07T01:32:58;34.33;;;31.77;;
8397;SDS011;4236;54.504;9.588;2022-12-07T01:35:25;33.80;;;31.40;;
8397;SDS011;4236;54.504;9.588;2022-12-07T01:37:53;34.33;;;31.70;;
8397;SDS011;4236;54.504;9.588;2022-12-07T01:40:21;35.53;;;32.87;;
8397;SDS011;4236;54.504;9.588;2022-12-07T01:42:48;35.90;;;33.00;;
8397;SDS011;4236;54.504;9.588;2022-12-07T01:45:34;35.23;;;32.60;;
8397;SDS011;4236;54.504;9.588;2022-12-07T01:48:07;37.87;;;34.87;;
8397;SDS011;4236;54.504;9.588;2022-12-07T01:50:36;36.73;;;33.70;;
8397;SDS011;4236;54.504;9.588;2022-12-07T01:53:06;37.37;;;34.27;;
8397;SDS011;4236;54.504;9.588;2022-12-07T01:55:37;36.40;;;33.60;;
8397;SDS011;4236;54.504;9.588;2022-12-07T01:58:09;36.97;;;34.03;;
8397;SDS011;4236;54.504;9.588;2022-12-07T02:00:38;38.03;;;34.73;;
8397;SDS011;4236;54.504;9.588;2022-12-07T02:03:10;37.70;;;34.60;;
8397;SDS011;4236;54.504;9.588;2022-12-07T02:05:43;38.30;;;35.17;;
8397;SDS011;4236;54.504;9.588;2022-12-07T02:08:13;36.17;;;33.57;;
8397;SDS011;4236;54.504;9.588;2022-12-07T02:10:42;36.63;;;33.77;;
8397;SDS011;4236;54.504;9.588;2022-12-07T02:13:10;39.13;;;35.40;;
8397;SDS011;4236;54.504;9.588;2022-12-07T02:15:49;37.27;;;34.53;;
8397;SDS011;4236;54.504;9.588;2022-12-07T02:18:32;37.43;;;34.40;;
8397;SDS011;4236;54.504;9.588;2022-12-07T02:21:09;38.47;;;35.07;;
8397;SDS011;4236;54.504;9.588;2022-12-07T02:23:51;37.20;;;34.33;;
8397;SDS011;4236;54.504;9.588;2022-12-07T02:26:55;39.50;;;36.03;;
8397;SDS011;4236;54.504;9.588;2022-12-07T02:29:40;37.63;;;34.53;;
8397;SDS011;4236;54.504;9.588;2022-12-07T02:32:13;37.23;;;34.03;;
8397;SDS011;4236;54.504;9.588;2022-12-07T02:34:47;35.70;;;32.80;;
8397;SDS011;4236;54.504;9.588;2022-12-07T02:37:19;37.90;;;35.10;;
8397;SDS011;4236;54.504;9.588;2022-12-07T02:39:57;35.63;;;32.93;;
8397;SDS011;4236;54.504;9.588;2022-12-07T02:42:29;37.67;;;34.77;;
8397;SDS011;4236;54.504;9.588;2022-12-07T02:45:02;36.83;;;34.03;;
8397;SDS011;4236;54.504;9.588;2022-12-07T02:47:32;39.10;;;35.60;;
8397;SDS011;4236;54.504;9.588;2022-12-07T02:50:02;38.60;;;35.30;;
8397;SDS011;4236;54.504;9.588;2022-12-07T02:52:31;38.77;;;35.43;;
8397;SDS011;4236;54.504;9.588;2022-12-07T02:54:58;38.97;;;35.57;;
8397;SDS011;4236;54.504;9.588;2022-12-07T02:57:31;41.47;;;37.70;;
8397;SDS011;4236;54.504;9.588;2022-12-07T03:00:11;38.80;;;35.80;;
8397;SDS011;4236;54.504;9.588;2022-12-07T03:02:47;38.70;;;35.47;;
8397;SDS011;4236;54.504;9.588;2022-12-07T03:05:29;40.57;;;36.83;;
8397;SDS011;4236;54.504;9.588;2022-12-07T03:08:06;40.20;;;37.10;;
8397;SDS011;4236;54.504;9.588;2022-12-07T03:10:41;40.27;;;36.97;;
8397;SDS011;4236;54.504;9.588;2022-12-07T03:13:17;41.83;;;37.87;;
8397;SDS011;4236;54.504;9.588;2022-12-07T03:15:53;38.97;;;35.07;;
8397;SDS011;4236;54.504;9.588;2022-12-07T03:18:26;39.33;;;35.90;;
8397;SDS011;4236;54.504;9.588;2022-12-07T03:20:58;38.37;;;35.07;;
8397;SDS011;4236;54.504;9.588;2022-12-07T03:23:32;39.67;;;36.20;;
8397;SDS011;4236;54.504;9.588;2022-12-07T03:26:02;39.67;;;36.40;;
8397;SDS011;4236;54.504;9.588;2022-12-07T03:28:32;40.10;;;36.40;;
8397;SDS011;4236;54.504;9.588;2022-12-07T03:31:06;38.47;;;35.13;;
8397;SDS011;4236;54.504;9.588;2022-12-07T03:33:42;38.97;;;35.67;;
8397;SDS011;4236;54.504;9.588;2022-12-07T03:36:17;41.37;;;37.67;;
8397;SDS011;4236;54.504;9.588;2022-12-07T03:38:50;40.23;;;36.80;;
8397;SDS011;4236;54.504;9.588;2022-12-07T03:41:23;39.60;;;36.10;;
8397;SDS011;4236;54.504;9.588;2022-12-07T03:43:54;38.13;;;34.97;;
8397;SDS011;4236;54.504;9.588;2022-12-07T03:46:27;39.70;;;36.23;;
8397;SDS011;4236;54.504;9.588;2022-12-07T03:49:05;36.37;;;33.47;;
8397;SDS011;4236;54.504;9.588;2022-12-07T03:51:38;38.87;;;35.63;;
8397;SDS011;4236;54.504;9.588;2022-12-07T03:54:11;36.40;;;33.03;;
8397;SDS011;4236;54.504;9.588;2022-12-07T03:56:43;36.97;;;33.60;;
8397;SDS011;4236;54.504;9.588;2022-12-07T03:59:12;37.50;;;33.90;;
8397;SDS011;4236;54.504;9.588;2022-12-07T04:01:43;36.47;;;33.10;;
8397;SDS011;4236;54.504;9.588;2022-12-07T04:04:12;38.47;;;35.43;;
8397;SDS011;4236;54.504;9.588;2022-12-07T04:06:39;37.37;;;33.90;;
8397;SDS011;4236;54.504;9.588;2022-12-07T04:09:07;36.90;;;33.57;;
8397;SDS011;4236;54.504;9.588;2022-12-07T04:11:34;37.70;;;34.50;;
8397;SDS011;4236;54.504;9.588;2022-12-07T04:14:02;37.07;;;33.80;;
8397;SDS011;4236;54.504;9.588;2022-12-07T04:16:50;35.73;;;32.93;;
8397;SDS011;4236;54.504;9.588;2022-12-07T04:19:20;37.50;;;34.17;;
8397;SDS011;4236;54.504;9.588;2022-12-07T04:21:50;37.70;;;34.60;;
8397;SDS011;4236;54.504;9.588;2022-12-07T04:24:18;38.43;;;35.10;;
8397;SDS011;4236;54.504;9.588;2022-12-07T04:26:46;37.77;;;34.07;;
8397;SDS011;4236;54.504;9.588;2022-12-07T04:29:14;36.83;;;33.43;;
8397;SDS011;4236;54.504;9.588;2022-12-07T04:31:42;38.30;;;34.63;;
8397;SDS011;4236;54.504;9.588;2022-12-07T04:34:11;38.23;;;34.90;;
8397;SDS011;4236;54.504;9.588;2022-12-07T04:36:39;36.63;;;33.27;;
8397;SDS011;4236;54.504;9.588;2022-12-07T04:39:08;37.40;;;34.10;;
8397;SDS011;4236;54.504;9.588;2022-12-07T04:41:44;37.17;;;33.77;;
8397;SDS011;4236;54.504;9.588;2022-12-07T04:44:12;38.27;;;35.30;;
8397;SDS011;4236;54.504;9.588;2022-12-07T04:46:41;39.53;;;35.97;;
8397;SDS011;4236;54.504;9.588;2022-12-07T04:49:09;38.87;;;35.40;;
8397;SDS011;4236;54.504;9.588;2022-12-07T04:51:39;69.73;;;40.63;;
8397;SDS011;4236;54.504;9.588;2022-12-07T04:54:06;36.30;;;33.33;;
8397;SDS011;4236;54.504;9.588;2022-12-07T04:56:35;38.43;;;34.93;;
8397;SDS011;4236;54.504;9.588;2022-12-07T04:59:03;39.10;;;35.73;;
8397;SDS011;4236;54.504;9.588;2022-12-07T05:01:31;38.17;;;34.60;;
8397;SDS011;4236;54.504;9.588;2022-12-07T05:03:59;37.47;;;33.73;;
8397;SDS011;4236;54.504;9.588;2022-12-07T05:06:27;36.97;;;34.00;;
8397;SDS011;4236;54.504;9.588;2022-12-07T05:08:56;37.50;;;34.20;;
8397;SDS011;4236;54.504;9.588;2022-12-07T05:11:24;37.90;;;34.70;;
8397;SDS011;4236;54.504;9.588;2022-12-07T05:14:08;36.70;;;33.73;;
8397;SDS011;4236;54.504;9.588;2022-12-07T05:16:39;36.70;;;33.57;;
8397;SDS011;4236;54.504;9.588;2022-12-07T05:19:08;38.97;;;35.17;;
8397;SDS011;4236;54.504;9.588;2022-12-07T05:21:36;39.00;;;35.80;;
8397;SDS011;4236;54.504;9.588;2022-12-07T05:24:06;37.17;;;33.80;;
8397;SDS011;4236;54.504;9.588;2022-12-07T05:26:35;36.70;;;33.53;;
8397;SDS011;4236;54.504;9.588;2022-12-07T05:29:03;36.67;;;33.50;;
8397;SDS011;4236;54.504;9.588;2022-12-07T05:31:31;38.13;;;34.67;;
8397;SDS011;4236;54.504;9.588;2022-12-07T05:34:00;36.47;;;33.50;;
8397;SDS011;4236;54.504;9.588;2022-12-07T05:36:28;36.63;;;33.57;;
8397;SDS011;4236;54.504;9.588;2022-12-07T05:38:57;35.37;;;32.27;;
8397;SDS011;4236;54.504;9.588;2022-12-07T05:41:26;34.30;;;31.70;;
8397;SDS011;4236;54.504;9.588;2022-12-07T05:44:11;36.07;;;33.13;;
8397;SDS011;4236;54.504;9.588;2022-12-07T05:46:39;35.50;;;32.50;;
8397;SDS011;4236;54.504;9.588;2022-12-07T05:49:06;38.00;;;34.60;;
8397;SDS011;4236;54.504;9.588;2022-12-07T05:51:34;37.60;;;34.70;;
8397;SDS011;4236;54.504;9.588;2022-12-07T05:54:02;40.40;;;36.47;;
8397;SDS011;4236;54.504;9.588;2022-12-07T05:56:31;38.70;;;35.20;;
8397;SDS011;4236;54.504;9.588;2022-12-07T05:58:59;36.17;;;33.17;;
8397;SDS011;4236;54.504;9.588;2022-12-07T06:01:44;37.40;;;34.47;;
8397;SDS011;4236;54.504;9.588;2022-12-07T06:04:12;38.50;;;35.00;;
8397;SDS011;4236;54.504;9.588;2022-12-07T06:06:39;35.83;;;33.23;;
8397;SDS011;4236;54.504;9.588;2022-12-07T06:09:07;36.30;;;33.40;;
8397;SDS011;4236;54.504;9.588;2022-12-07T06:11:36;34.77;;;32.07;;
8397;SDS011;4236;54.504;9.588;2022-12-07T06:14:21;34.67;;;31.87;;
8397;SDS011;4236;54.504;9.588;2022-12-07T06:16:49;33.50;;;30.80;;
8397;SDS011;4236;54.504;9.588;2022-12-07T06:19:17;34.10;;;31.50;;
8397;SDS011;4236;54.504;9.588;2022-12-07T06:21:44;36.53;;;32.80;;
8397;SDS011;4236;54.504;9.588;2022-12-07T06:24:12;35.10;;;32.13;;
8397;SDS011;4236;54.504;9.588;2022-12-07T06:26:43;34.17;;;31.57;;
8397;SDS011;4236;54.504;9.588;2022-12-07T06:29:11;33.67;;;31.00;;
8397;SDS011;4236;54.504;9.588;2022-12-07T06:31:39;33.03;;;30.67;;
8397;SDS011;4236;54.504;9.588;2022-12-07T06:34:09;34.53;;;31.80;;
8397;SDS011;4236;54.504;9.588;2022-12-07T06:36:39;33.13;;;30.50;;
8397;SDS011;4236;54.504;9.588;2022-12-07T06:39:07;33.93;;;31.33;;
8397;SDS011;4236;54.504;9.588;2022-12-07T06:41:35;33.17;;;30.50;;
8397;SDS011;4236;54.504;9.588;2022-12-07T06:44:05;32.93;;;30.27;;
8397;SDS011;4236;54.504;9.588;2022-12-07T06:46:33;32.63;;;30.13;;
8397;SDS011;4236;54.504;9.588;2022-12-07T06:49:01;32.03;;;29.50;;
8397;SDS011;4236;54.504;9.588;2022-12-07T06:51:29;29.57;;;27.70;;
8397;SDS011;4236;54.504;9.588;2022-12-07T06:53:57;31.40;;;28.33;;
8397;SDS011;4236;54.504;9.588;2022-12-07T06:56:25;32.37;;;29.00;;
8397;SDS011;4236;54.504;9.588;2022-12-07T06:58:52;29.53;;;27.60;;
8397;SDS011;4236;54.504;9.588;2022-12-07T07:01:21;30.07;;;28.23;;
8397;SDS011;4236;54.504;9.588;2022-12-07T07:03:49;30.30;;;28.30;;
8397;SDS011;4236;54.504;9.588;2022-12-07T07:06:16;28.70;;;26.90;;
8397;SDS011;4236;54.504;9.588;2022-12-07T07:08:44;29.57;;;27.57;;
8397;SDS011;4236;54.504;9.588;2022-12-07T07:11:12;29.83;;;27.60;;
8397;SDS011;4236;54.504;9.588;2022-12-07T07:13:39;28.53;;;26.60;;
8397;SDS011;4236;54.504;9.588;2022-12-07T07:16:07;28.20;;;26.30;;
8397;SDS011;4236;54.504;9.588;2022-12-07T07:18:36;30.03;;;27.67;;
8397;SDS011;4236;54.504;9.588;2022-12-07T07:21:04;27.90;;;26.07;;
8397;SDS011;4236;54.504;9.588;2022-12-07T07:23:32;28.57;;;26.50;;
8397;SDS011;4236;54.504;9.588;2022-12-07T07:26:00;28.50;;;26.17;;
8397;SDS011;4236;54.504;9.588;2022-12-07T07:28:27;28.97;;;26.70;;
8397;SDS011;4236;54.504;9.588;2022-12-07T07:30:55;26.53;;;25.03;;
8397;SDS011;4236;54.504;9.588;2022-12-07T07:33:23;26.87;;;25.27;;
8397;SDS011;4236;54.504;9.588;2022-12-07T07:35:52;26.83;;;25.37;;
8397;SDS011;4236;54.504;9.588;2022-12-07T07:38:19;28.73;;;26.40;;
8397;SDS011;4236;54.504;9.588;2022-12-07T07:40:47;27.13;;;24.80;;
8397;SDS011;4236;54.504;9.588;2022-12-07T07:43:14;26.20;;;24.50;;
8397;SDS011;4236;54.504;9.588;2022-12-07T07:45:42;25.37;;;23.97;;
8397;SDS011;4236;54.504;9.588;2022-12-07T07:48:11;26.00;;;24.60;;
8397;SDS011;4236;54.504;9.588;2022-12-07T07:50:38;24.90;;;23.60;;
8397;SDS011;4236;54.504;9.588;2022-12-07T07:53:07;25.70;;;24.20;;
8397;SDS011;4236;54.504;9.588;2022-12-07T07:55:35;26.37;;;24.43;;
8397;SDS011;4236;54.504;9.588;2022-12-07T07:58:03;26.10;;;23.97;;
8397;SDS011;4236;54.504;9.588;2022-12-07T08:00:30;26.23;;;24.00;;
8397;SDS011;4236;54.504;9.588;2022-12-07T08:02:58;25.40;;;23.83;;
8397;SDS011;4236;54.504;9.588;2022-12-07T08:05:26;26.43;;;24.53;;
8397;SDS011;4236;54.504;9.588;2022-12-07T08:07:54;26.50;;;24.60;;
8397;SDS011;4236;54.504;9.588;2022-12-07T08:10:23;26.87;;;25.13;;
8397;SDS011;4236;54.504;9.588;2022-12-07T08:12:50;26.30;;;24.60;;
8397;SDS011;4236;54.504;9.588;2022-12-07T08:15:36;26.53;;;24.87;;
8397;SDS011;4236;54.504;9.588;2022-12-07T08:18:05;26.33;;;24.57;;
8397;SDS011;4236;54.504;9.588;2022-12-07T08:20:34;25.47;;;23.97;;
8397;SDS011;4236;54.504;9.588;2022-12-07T08:23:02;27.27;;;25.13;;
8397;SDS011;4236;54.504;9.588;2022-12-07T08:25:31;26.97;;;24.43;;
8397;SDS011;4236;54.504;9.588;2022-12-07T08:28:00;26.13;;;24.40;;
8397;SDS011;4236;54.504;9.588;2022-12-07T08:30:28;26.60;;;24.60;;
8397;SDS011;4236;54.504;9.588;2022-12-07T08:32:56;26.00;;;24.40;;
8397;SDS011;4236;54.504;9.588;2022-12-07T08:35:24;26.80;;;25.13;;
8397;SDS011;4236;54.504;9.588;2022-12-07T08:37:53;25.83;;;24.17;;
8397;SDS011;4236;54.504;9.588;2022-12-07T08:40:20;26.30;;;24.67;;
8397;SDS011;4236;54.504;9.588;2022-12-07T08:42:49;26.13;;;24.73;;
8397;SDS011;4236;54.504;9.588;2022-12-07T08:45:18;26.70;;;25.07;;
8397;SDS011;4236;54.504;9.588;2022-12-07T08:47:53;26.07;;;24.60;;
8397;SDS011;4236;54.504;9.588;2022-12-07T08:50:24;26.20;;;24.90;;
8397;SDS011;4236;54.504;9.588;2022-12-07T08:52:52;25.70;;;24.20;;
8397;SDS011;4236;54.504;9.588;2022-12-07T08:55:22;26.07;;;24.57;;
8397;SDS011;4236;54.504;9.588;2022-12-07T08:57:52;26.63;;;24.60;;
8397;SDS011;4236;54.504;9.588;2022-12-07T09:00:20;26.83;;;25.07;;
8397;SDS011;4236;54.504;9.588;2022-12-07T09:02:48;26.57;;;25.00;;
8397;SDS011;4236;54.504;9.588;2022-12-07T09:05:15;26.60;;;25.10;;
8397;SDS011;4236;54.504;9.588;2022-12-07T09:07:43;26.63;;;24.50;;
8397;SDS011;4236;54.504;9.588;2022-12-07T09:10:14;26.67;;;24.97;;
8397;SDS011;4236;54.504;9.588;2022-12-07T09:12:42;26.87;;;25.47;;
8397;SDS011;4236;54.504;9.588;2022-12-07T09:15:11;26.23;;;24.53;;
8397;SDS011;4236;54.504;9.588;2022-12-07T09:17:39;26.10;;;24.20;;
8397;SDS011;4236;54.504;9.588;2022-12-07T09:20:07;26.10;;;24.27;;
8397;SDS011;4236;54.504;9.588;2022-12-07T09:22:35;25.03;;;23.73;;
8397;SDS011;4236;54.504;9.588;2022-12-07T09:25:03;25.20;;;23.80;;
8397;SDS011;4236;54.504;9.588;2022-12-07T09:27:31;27.43;;;25.83;;
8397;SDS011;4236;54.504;9.588;2022-12-07T09:29:59;25.57;;;24.10;;
8397;SDS011;4236;54.504;9.588;2022-12-07T09:32:28;26.97;;;24.50;;
8397;SDS011;4236;54.504;9.588;2022-12-07T09:34:56;26.70;;;25.23;;
8397;SDS011;4236;54.504;9.588;2022-12-07T09:37:24;26.00;;;24.77;;
8397;SDS011;4236;54.504;9.588;2022-12-07T09:39:51;25.93;;;24.73;;
8397;SDS011;4236;54.504;9.588;2022-12-07T09:42:25;25.53;;;24.23;;
8397;SDS011;4236;54.504;9.588;2022-12-07T09:44:55;26.67;;;24.90;;
8397;SDS011;4236;54.504;9.588;2022-12-07T09:47:24;25.43;;;24.23;;
8397;SDS011;4236;54.504;9.588;2022-12-07T09:49:54;25.80;;;24.13;;
8397;SDS011;4236;54.504;9.588;2022-12-07T09:52:26;25.47;;;24.07;;
8397;SDS011;4236;54.504;9.588;2022-12-07T09:55:08;25.40;;;24.10;;
8397;SDS011;4236;54.504;9.588;2022-12-07T09:57:38;25.20;;;23.73;;
8397;SDS011;4236;54.504;9.588;2022-12-07T10:00:07;25.87;;;24.67;;
8397;SDS011;4236;54.504;9.588;2022-12-07T10:02:41;25.20;;;23.70;;
8397;SDS011;4236;54.504;9.588;2022-12-07T10:05:14;25.27;;;23.67;;
8397;SDS011;4236;54.504;9.588;2022-12-07T10:07:49;24.53;;;23.07;;
8397;SDS011;4236;54.504;9.588;2022-12-07T10:10:19;23.70;;;22.70;;
8397;SDS011;4236;54.504;9.588;2022-12-07T10:12:53;24.60;;;23.20;;
8397;SDS011;4236;54.504;9.588;2022-12-07T10:15:23;24.53;;;22.93;;
8397;SDS011;4236;54.504;9.588;2022-12-07T10:17:51;25.63;;;23.60;;
8397;SDS011;4236;54.504;9.588;2022-12-07T10:20:22;23.87;;;22.77;;
8397;SDS011;4236;54.504;9.588;2022-12-07T10:22:57;23.50;;;22.40;;
8397;SDS011;4236;54.504;9.588;2022-12-07T10:25:28;23.50;;;22.50;;
8397;SDS011;4236;54.504;9.588;2022-12-07T10:30:52;23.67;;;22.37;;
8397;SDS011;4236;54.504;9.588;2022-12-07T10:33:29;23.67;;;22.67;;
8397;SDS011;4236;54.504;9.588;2022-12-07T10:36:01;24.23;;;23.00;;
8397;SDS011;4236;54.504;9.588;2022-12-07T10:38:44;23.33;;;22.33;;
8397;SDS011;4236;54.504;9.588;2022-12-07T10:41:13;24.93;;;23.73;;
8397;SDS011;4236;54.504;9.588;2022-12-07T10:43:48;24.70;;;23.20;;
8397;SDS011;4236;54.504;9.588;2022-12-07T10:49:19;24.10;;;23.00;;
8397;SDS011;4236;54.504;9.588;2022-12-07T10:52:25;24.07;;;23.07;;
8397;SDS011;4236;54.504;9.588;2022-12-07T10:55:08;23.40;;;22.40;;
8397;SDS011;4236;54.504;9.588;2022-12-07T10:57:50;23.30;;;22.30;;
8397;SDS011;4236;54.504;9.588;2022-12-07T11:00:42;23.20;;;22.30;;
8397;SDS011;4236;54.504;9.588;2022-12-07T11:03:19;24.00;;;22.90;;
8397;SDS011;4236;54.504;9.588;2022-12-07T11:06:14;23.83;;;22.50;;
8397;SDS011;4236;54.504;9.588;2022-12-07T11:08:57;23.40;;;22.43;;
8397;SDS011;4236;54.504;9.588;2022-12-07T11:12:11;23.87;;;22.90;;
8397;SDS011;4236;54.504;9.588;2022-12-07T11:14:51;24.90;;;23.80;;
8397;SDS011;4236;54.504;9.588;2022-12-07T11:17:26;24.30;;;23.10;;
8397;SDS011;4236;54.504;9.588;2022-12-07T11:20:05;24.20;;;23.10;;
8397;SDS011;4236;54.504;9.588;2022-12-07T11:22:47;24.60;;;23.10;;
8397;SDS011;4236;54.504;9.588;2022-12-07T11:25:25;25.10;;;23.70;;
8397;SDS011;4236;54.504;9.588;2022-12-07T11:28:15;24.43;;;23.03;;
8397;SDS011;4236;54.504;9.588;2022-12-07T11:30:55;23.90;;;22.70;;
8397;SDS011;4236;54.504;9.588;2022-12-07T11:33:33;24.23;;;23.10;;
8397;SDS011;4236;54.504;9.588;2022-12-07T11:36:15;24.97;;;23.77;;
8397;SDS011;4236;54.504;9.588;2022-12-07T11:38:57;23.53;;;22.43;;
8397;SDS011;4236;54.504;9.588;2022-12-07T11:41:29;22.80;;;21.70;;
8397;SDS011;4236;54.504;9.588;2022-12-07T11:44:02;22.83;;;21.30;;
8397;SDS011;4236;54.504;9.588;2022-12-07T11:46:38;21.43;;;20.63;;
8397;SDS011;4236;54.504;9.588;2022-12-07T11:49:14;23.80;;;22.90;;
8397;SDS011;4236;54.504;9.588;2022-12-07T11:51:46;22.63;;;21.40;;
8397;SDS011;4236;54.504;9.588;2022-12-07T11:54:19;21.60;;;20.80;;
8397;SDS011;4236;54.504;9.588;2022-12-07T11:56:52;23.23;;;22.03;;
8397;SDS011;4236;54.504;9.588;2022-12-07T11:59:28;22.90;;;21.60;;
8397;SDS011;4236;54.504;9.588;2022-12-07T12:02:00;22.33;;;21.43;;
8397;SDS011;4236;54.504;9.588;2022-12-07T12:04:44;23.20;;;21.90;;
8397;SDS011;4236;54.504;9.588;2022-12-07T12:07:19;22.30;;;21.30;;
8397;SDS011;4236;54.504;9.588;2022-12-07T12:10:14;22.20;;;21.40;;
8397;SDS011;4236;54.504;9.588;2022-12-07T12:13:08;22.10;;;21.30;;
8397;SDS011;4236;54.504;9.588;2022-12-07T12:16:37;22.43;;;21.50;;
8397;SDS011;4236;54.504;9.588;2022-12-07T12:19:19;22.67;;;21.50;;
8397;SDS011;4236;54.504;9.588;2022-12-07T12:21:55;22.10;;;21.10;;
8397;SDS011;4236;54.504;9.588;2022-12-07T12:24:28;22.33;;;21.53;;
8397;SDS011;4236;54.504;9.588;2022-12-07T12:27:03;23.50;;;22.23;;
8397;SDS011;4236;54.504;9.588;2022-12-07T12:29:36;23.03;;;21.87;;
8397;SDS011;4236;54.504;9.588;2022-12-07T12:32:07;22.43;;;21.47;;
8397;SDS011;4236;54.504;9.588;2022-12-07T12:34:41;23.33;;;22.13;;
8397;SDS011;4236;54.504;9.588;2022-12-07T12:37:39;22.23;;;21.40;;
8397;SDS011;4236;54.504;9.588;2022-12-07T12:49:34;23.90;;;22.90;;
8397;SDS011;4236;54.504;9.588;2022-12-07T12:55:28;24.43;;;23.23;;
8397;SDS011;4236;54.504;9.588;2022-12-07T12:58:28;24.43;;;23.20;;
8397;SDS011;4236;54.504;9.588;2022-12-07T13:10:25;23.97;;;23.07;;
8397;SDS011;4236;54.504;9.588;2022-12-07T13:13:03;24.10;;;22.67;;
8397;SDS011;4236;54.504;9.588;2022-12-07T13:15:52;23.03;;;22.13;;
8397;SDS011;4236;54.504;9.588;2022-12-07T13:18:24;23.47;;;22.40;;
8397;SDS011;4236;54.504;9.588;2022-12-07T13:21:02;23.40;;;22.40;;
8397;SDS011;4236;54.504;9.588;2022-12-07T13:23:54;22.90;;;22.00;;
8397;SDS011;4236;54.504;9.588;2022-12-07T13:26:33;23.97;;;23.07;;
8397;SDS011;4236;54.504;9.588;2022-12-07T13:29:05;24.30;;;23.30;;
8397;SDS011;4236;54.504;9.588;2022-12-07T13:31:38;23.33;;;22.33;;
8397;SDS011;4236;54.504;9.588;2022-12-07T13:36:57;23.47;;;22.57;;
8397;SDS011;4236;54.504;9.588;2022-12-07T13:39:26;23.60;;;22.60;;
8397;SDS011;4236;54.504;9.588;2022-12-07T13:41:56;23.90;;;22.90;;
8397;SDS011;4236;54.504;9.588;2022-12-07T13:44:26;23.23;;;22.13;;
8397;SDS011;4236;54.504;9.588;2022-12-07T13:46:58;24.57;;;23.27;;
8397;SDS011;4236;54.504;9.588;2022-12-07T13:49:32;25.23;;;24.13;;
8397;SDS011;4236;54.504;9.588;2022-12-07T13:52:14;24.23;;;23.20;;
8397;SDS011;4236;54.504;9.588;2022-12-07T13:54:45;24.13;;;23.00;;
8397;SDS011;4236;54.504;9.588;2022-12-07T13:57:16;25.40;;;23.90;;
8397;SDS011;4236;54.504;9.588;2022-12-07T13:59:44;24.87;;;23.77;;
8397;SDS011;4236;54.504;9.588;2022-12-07T14:02:19;24.00;;;23.10;;
8397;SDS011;4236;54.504;9.588;2022-12-07T14:04:48;25.17;;;24.03;;
8397;SDS011;4236;54.504;9.588;2022-12-07T14:09:54;24.67;;;23.60;;
8397;SDS011;4236;54.504;9.588;2022-12-07T14:12:25;25.33;;;24.23;;
8397;SDS011;4236;54.504;9.588;2022-12-07T14:14:54;24.50;;;23.50;;
8397;SDS011;4236;54.504;9.588;2022-12-07T14:17:23;25.03;;;23.93;;
8397;SDS011;4236;54.504;9.588;2022-12-07T14:19:52;24.43;;;23.53;;
8397;SDS011;4236;54.504;9.588;2022-12-07T14:22:26;24.13;;;23.23;;
8397;SDS011;4236;54.504;9.588;2022-12-07T14:25:00;25.07;;;23.87;;
8397;SDS011;4236;54.504;9.588;2022-12-07T14:27:47;24.57;;;23.47;;
8397;SDS011;4236;54.504;9.588;2022-12-07T14:30:17;25.20;;;24.20;;
8397;SDS011;4236;54.504;9.588;2022-12-07T14:32:46;25.27;;;24.17;;
8397;SDS011;4236;54.504;9.588;2022-12-07T14:35:18;24.93;;;23.93;;
8397;SDS011;4236;54.504;9.588;2022-12-07T14:37:47;24.50;;;23.60;;
8397;SDS011;4236;54.504;9.588;2022-12-07T14:40:17;26.30;;;25.00;;
8397;SDS011;4236;54.504;9.588;2022-12-07T14:42:49;27.30;;;26.10;;
8397;SDS011;4236;54.504;9.588;2022-12-07T14:45:20;25.77;;;24.57;;
8397;SDS011;4236;54.504;9.588;2022-12-07T14:47:49;26.73;;;25.30;;
8397;SDS011;4236;54.504;9.588;2022-12-07T14:50:38;27.97;;;26.77;;
8397;SDS011;4236;54.504;9.588;2022-12-07T14:53:29;26.53;;;25.40;;
8397;SDS011;4236;54.504;9.588;2022-12-07T14:56:02;26.17;;;24.73;;
8397;SDS011;4236;54.504;9.588;2022-12-07T14:58:33;25.83;;;24.63;;
8397;SDS011;4236;54.504;9.588;2022-12-07T15:01:01;26.27;;;25.07;;
8397;SDS011;4236;54.504;9.588;2022-12-07T15:03:28;25.70;;;24.50;;
8397;SDS011;4236;54.504;9.588;2022-12-07T15:05:57;26.30;;;24.57;;
8397;SDS011;4236;54.504;9.588;2022-12-07T15:08:25;39.17;;;35.93;;
8397;SDS011;4236;54.504;9.588;2022-12-07T15:10:52;27.73;;;26.30;;
8397;SDS011;4236;54.504;9.588;2022-12-07T15:13:20;26.53;;;25.23;;
8397;SDS011;4236;54.504;9.588;2022-12-07T15:16:09;26.70;;;25.50;;
8397;SDS011;4236;54.504;9.588;2022-12-07T15:18:38;28.50;;;26.80;;
8397;SDS011;4236;54.504;9.588;2022-12-07T15:21:23;29.20;;;27.50;;
8397;SDS011;4236;54.504;9.588;2022-12-07T15:23:51;27.53;;;26.30;;
8397;SDS011;4236;54.504;9.588;2022-12-07T15:26:18;26.33;;;25.07;;
8397;SDS011;4236;54.504;9.588;2022-12-07T15:28:46;25.63;;;24.53;;
8397;SDS011;4236;54.504;9.588;2022-12-07T15:31:16;26.87;;;25.57;;
8397;SDS011;4236;54.504;9.588;2022-12-07T15:34:04;26.47;;;25.27;;
8397;SDS011;4236;54.504;9.588;2022-12-07T15:36:32;27.50;;;26.40;;
8397;SDS011;4236;54.504;9.588;2022-12-07T15:39:01;26.97;;;25.57;;
8397;SDS011;4236;54.504;9.588;2022-12-07T15:41:44;26.30;;;25.20;;
8397;SDS011;4236;54.504;9.588;2022-12-07T15:44:12;25.97;;;24.57;;
8397;SDS011;4236;54.504;9.588;2022-12-07T15:46:59;28.33;;;26.90;;
8397;SDS011;4236;54.504;9.588;2022-12-07T15:49:27;26.43;;;25.23;;
8397;SDS011;4236;54.504;9.588;2022-12-07T15:51:55;27.87;;;26.57;;